createdAt,value
2022-08-18T00:17:13.167Z,20.66
2022-08-18T00:37:15.923Z,20.52
2022-08-18T00:57:20.258Z,20.46
2022-08-18T01:17:41.707Z,20.13
2022-08-18T01:37:44.587Z,19.71
2022-08-18T01:57:47.096Z,19.76
2022-08-18T02:17:49.801Z,19.62
2022-08-18T02:37:54.608Z,19.40
2022-08-18T02:57:57.257Z,19.54
2022-08-18T03:17:59.928Z,19.39
2022-08-18T03:38:02.626Z,19.28
2022-08-18T04:18:24.181Z,19.24
2022-08-18T04:38:26.816Z,19.92
2022-08-18T04:58:29.269Z,21.05
2022-08-18T05:18:32.295Z,22.48
2022-08-18T05:38:34.942Z,23.67
2022-08-18T05:58:37.836Z,24.84
2022-08-18T06:18:40.507Z,25.58
2022-08-18T06:38:45.594Z,25.80
2022-08-18T06:58:52.676Z,25.80
2022-08-18T07:18:56.028Z,25.90
2022-08-18T07:38:58.836Z,25.92
2022-08-18T07:59:01.564Z,26.41
2022-08-18T08:19:12.177Z,26.86
2022-08-18T08:39:15.376Z,27.19
2022-08-18T08:59:17.934Z,27.52
2022-08-18T09:19:20.990Z,28.03
2022-08-18T09:39:42.709Z,28.32
2022-08-18T09:59:45.477Z,28.45
2022-08-18T10:19:49.505Z,28.70
2022-08-18T10:39:55.617Z,28.84
2022-08-18T10:59:59.490Z,29.25
2022-08-18T11:20:02.436Z,29.26
2022-08-18T11:40:05.289Z,29.29
2022-08-18T12:20:35.094Z,29.81
2022-08-18T12:40:37.664Z,29.88
2022-08-18T13:00:42.129Z,29.93
2022-08-18T13:20:45.291Z,30.02
2022-08-18T13:40:49.471Z,30.09
2022-08-18T14:00:54.362Z,30.09
2022-08-18T14:21:15.730Z,30.24
2022-08-18T14:41:18.256Z,30.16
2022-08-18T15:01:21.474Z,30.06
2022-08-18T15:21:45.106Z,30.07
2022-08-18T16:01:53.582Z,29.53
2022-08-18T16:21:56.274Z,29.39
2022-08-18T16:41:58.800Z,28.98
2022-08-18T17:02:20.070Z,28.47
2022-08-18T17:22:22.662Z,27.85
2022-08-18T17:42:28.158Z,27.18
2022-08-18T18:02:30.921Z,26.40
2022-08-18T18:22:33.397Z,25.56
2022-08-18T18:42:36.036Z,24.99
2022-08-18T19:02:38.547Z,24.73
2022-08-18T19:22:41.132Z,24.36
2022-08-18T19:42:43.846Z,24.22
2022-08-18T20:02:46.303Z,24.22
2022-08-18T20:22:48.990Z,23.99
2022-08-18T20:43:06.936Z,23.64
2022-08-18T21:03:10.358Z,23.32
2022-08-18T21:23:13.134Z,23.22
2022-08-18T21:43:15.874Z,23.15
2022-08-18T22:03:18.348Z,23.21
2022-08-18T22:23:41.678Z,23.29
2022-08-18T22:43:45.035Z,23.12
2022-08-18T23:03:50.202Z,22.90
2022-08-18T23:23:52.793Z,22.78
2022-08-18T23:43:55.440Z,22.77
